Time;durP1;ratioP1;P1;durP2;ratioP2;P2;SDS_P1;SDS_P2;PMS_P1;PMS_P2;Temp;Humidity;BMP_temperature;BMP_pressure;BME280_temperature;BME280_humidity;BME280_pressure;Samples;Min_cycle;Max_cycle;Signal;HPM_P1;HPM_P2
2022/04/07 00:00:26;;;;;;;6.13;0.82;;;;;;;8.78;100.00;96416.16;7393466;19;20007;-56
2022/04/07 00:02:52;;;;;;;0.38;0.38;;;;;;;8.90;100.00;96406.22;7397135;19;20017;-56
2022/04/07 00:05:19;;;;;;;0.47;0.47;;;;;;;8.96;100.00;96401.28;7393299;19;20025;-56
2022/04/07 00:07:45;;;;;;;0.43;0.38;;;;;;;8.95;100.00;96394.22;7392586;19;20074;-56
2022/04/07 00:10:11;;;;;;;0.50;0.50;;;;;;;8.95;100.00;96396.25;7391628;19;20075;-56
2022/04/07 00:12:37;;;;;;;5.70;0.50;;;;;;;8.96;100.00;96392.94;7394227;19;20502;-56
2022/04/07 00:15:04;;;;;;;10.50;1.30;;;;;;;9.01;100.00;96383.69;7394082;19;20066;-56
2022/04/07 00:17:30;;;;;;;0.20;0.20;;;;;;;9.08;100.00;96385.78;7394224;19;20015;-56
2022/04/07 00:19:56;;;;;;;0.15;0.15;;;;;;;9.08;100.00;96374.66;7391625;19;20361;-56
2022/04/07 00:22:22;;;;;;;0.35;0.35;;;;;;;9.05;100.00;96384.09;7395249;19;20078;-56
2022/04/07 00:24:48;;;;;;;0.40;0.40;;;;;;;9.03;100.00;96378.34;7392666;19;20078;-56
2022/04/07 00:27:16;;;;;;;2.22;1.10;;;;;;;9.06;100.00;96379.28;7393703;19;20018;-56
2022/04/07 00:29:42;;;;;;;0.35;0.35;;;;;;;9.04;100.00;96363.19;7394207;19;20482;-56
2022/04/07 00:32:08;;;;;;;0.20;0.20;;;;;;;9.07;100.00;96375.94;7396294;19;20014;-56
2022/04/07 00:34:35;;;;;;;0.52;0.52;;;;;;;9.13;100.00;96365.44;7392396;19;20484;-56
2022/04/07 00:37:01;;;;;;;0.57;0.57;;;;;;;9.21;100.00;96361.94;7390429;19;20410;-56
2022/04/07 00:39:27;;;;;;;4.55;0.75;;;;;;;9.26;100.00;96363.81;7388657;19;20349;-56
2022/04/07 00:41:53;;;;;;;0.30;0.30;;;;;;;9.32;100.00;96344.94;7392595;19;20014;-56
2022/04/07 00:44:22;;;;;;;0.43;0.43;;;;;;;9.37;100.00;96347.56;7391692;19;20685;-56
2022/04/07 00:46:49;;;;;;;0.20;0.20;;;;;;;9.36;100.00;96346.06;7393077;19;20443;-56
2022/04/07 00:49:15;;;;;;;0.20;0.10;;;;;;;9.40;100.00;96356.81;7391792;19;20014;-56
2022/04/07 00:51:43;;;;;;;0.38;0.38;;;;;;;9.41;100.00;96336.06;7393396;19;20018;-56
2022/04/07 00:54:10;;;;;;;1.48;0.75;;;;;;;9.50;100.00;96332.75;7392330;19;20010;-56
2022/04/07 00:56:37;;;;;;;0.73;0.73;;;;;;;9.51;100.00;96323.13;7395014;19;20030;-56
2022/04/07 00:59:07;;;;;;;1.13;0.43;;;;;;;9.49;100.00;96325.72;7391707;19;20355;-56
2022/04/07 01:01:34;;;;;;;0.52;0.40;;;;;;;9.54;100.00;96322.00;7393252;19;20459;-56
2022/04/07 01:04:01;;;;;;;0.32;0.32;;;;;;;9.55;100.00;96306.84;7390722;19;20015;-56
2022/04/07 01:06:27;;;;;;;0.30;0.30;;;;;;;9.53;100.00;96312.22;7393734;19;20817;-56
2022/04/07 01:08:55;;;;;;;1.67;1.52;;;;;;;9.56;100.00;96308.31;7390683;19;20010;-57
2022/04/07 01:11:24;;;;;;;0.45;0.45;;;;;;;9.64;100.00;96309.06;7392022;19;20021;-56
2022/04/07 01:13:51;;;;;;;0.32;0.32;;;;;;;9.61;100.00;96293.50;7394085;19;20021;-56
2022/04/07 01:16:20;;;;;;;0.30;0.30;;;;;;;9.58;100.00;96272.38;7395512;19;20038;-56
2022/04/07 01:18:46;;;;;;;0.17;0.17;;;;;;;9.56;100.00;96270.16;7388588;19;20102;-56
2022/04/07 01:21:14;;;;;;;4.90;0.45;;;;;;;9.57;100.00;96276.47;7390588;19;20018;-56
2022/04/07 01:23:54;;;;;;;1.58;0.60;;;;;;;9.57;100.00;96271.63;7390932;19;20014;-56
2022/04/07 01:26:21;;;;;;;0.40;0.40;;;;;;;9.60;100.00;96275.34;7393496;19;20776;-56
2022/04/07 01:28:49;;;;;;;7.72;0.88;;;;;;;9.55;100.00;96268.69;7392052;19;20007;-56
2022/04/07 01:31:15;;;;;;;0.47;0.38;;;;;;;9.70;100.00;96265.19;7391411;19;20550;-56
2022/04/07 01:33:42;;;;;;;1.58;0.52;;;;;;;9.73;100.00;96269.59;7390547;19;20025;-56
2022/04/07 01:36:10;;;;;;;0.28;0.28;;;;;;;9.73;100.00;96253.69;7392033;19;20101;-56
2022/04/07 01:38:37;;;;;;;0.52;0.52;;;;;;;9.67;100.00;96257.94;7390990;19;20030;-56
2022/04/07 01:41:03;;;;;;;0.60;0.60;;;;;;;9.67;100.00;96235.72;7366728;19;20007;-81
2022/04/07 01:43:30;;;;;;;0.40;0.40;;;;;;;9.70;100.00;96251.28;7386145;19;20360;-80
2022/04/07 01:45:57;;;;;;;13.63;1.05;;;;;;;9.71;100.00;96247.94;7390650;19;20018;-83
2022/04/07 01:48:23;;;;;;;0.28;0.28;;;;;;;9.79;100.00;96247.91;7386732;19;20022;-82
2022/04/07 01:50:50;;;;;;;2.17;0.73;;;;;;;9.90;100.00;96241.97;7385944;19;20015;-81
2022/04/07 01:53:18;;;;;;;19.38;0.75;;;;;;;9.90;100.00;96253.09;7385238;19;20033;-81
2022/04/07 01:55:44;;;;;;;0.30;0.30;;;;;;;9.87;100.00;96237.56;7385584;19;20027;-81
2022/04/07 01:58:11;;;;;;;5.05;0.60;;;;;;;9.93;100.00;96232.53;7385408;19;20026;-81
2022/04/07 02:00:39;;;;;;;0.40;0.40;;;;;;;9.91;100.00;96235.88;7386303;19;20019;-81
2022/04/07 02:03:08;;;;;;;0.38;0.22;;;;;;;9.93;100.00;96235.31;7385440;19;20018;-81
2022/04/07 02:05:35;;;;;;;0.20;0.20;;;;;;;9.88;100.00;96234.22;7387046;19;20021;-82
2022/04/07 02:08:01;;;;;;;0.55;0.50;;;;;;;9.91;100.00;96224.75;7384087;19;20018;-81
2022/04/07 02:10:30;;;;;;;7.97;0.95;;;;;;;9.89;100.00;96215.50;7382617;19;20393;-80
2022/04/07 02:12:56;;;;;;;0.60;0.60;;;;;;;9.89;100.00;96215.50;7385376;19;20010;-79
2022/04/07 02:15:26;;;;;;;0.30;0.30;;;;;;;9.93;100.00;96213.81;7386811;19;20656;-79
2022/04/07 02:17:52;;;;;;;0.10;0.10;;;;;;;9.96;100.00;96208.44;7386528;19;20018;-79
2022/04/07 02:20:19;;;;;;;0.30;0.30;;;;;;;9.90;100.00;96226.06;7383353;19;20135;-80
2022/04/07 02:22:45;;;;;;;0.40;0.40;;;;;;;9.87;100.00;96216.03;7389415;19;20083;-79
2022/04/07 02:25:11;;;;;;;3.72;0.30;;;;;;;9.82;100.00;96207.91;7382601;19;20018;-79
2022/04/07 02:27:40;;;;;;;0.90;0.90;;;;;;;9.81;100.00;96218.28;7384771;19;20086;-78
2022/04/07 02:30:12;;;;;;;7.32;0.43;;;;;;;9.89;100.00;96212.72;7383183;19;20023;-78
2022/04/07 02:32:38;;;;;;;0.35;0.35;;;;;;;9.88;100.00;96206.41;7390135;19;20034;-80
2022/04/07 02:35:05;;;;;;;0.60;0.60;;;;;;;9.83;100.00;96209.41;7390488;19;20011;-81
2022/04/07 02:37:31;;;;;;;0.50;0.50;;;;;;;9.75;100.00;96197.53;7390488;19;20090;-82
2022/04/07 02:39:57;;;;;;;1.38;1.02;;;;;;;9.74;100.00;96207.19;7387404;19;20374;-82
2022/04/07 02:42:23;;;;;;;0.40;0.40;;;;;;;9.72;100.00;96198.69;7390098;19;20036;-81
2022/04/07 02:44:49;;;;;;;2.20;0.38;;;;;;;9.72;100.00;96198.69;7395391;19;20021;-81
2022/04/07 02:47:17;;;;;;;0.30;0.30;;;;;;;9.70;100.00;96190.16;7398436;19;20023;-81
2022/04/07 02:49:43;;;;;;;0.30;0.30;;;;;;;9.71;100.00;96191.63;7398252;19;20030;-81
2022/04/07 02:52:10;;;;;;;4.22;0.47;;;;;;;9.78;100.00;96190.88;7398975;19;20029;-82
2022/04/07 02:54:37;;;;;;;0.40;0.40;;;;;;;9.79;100.00;96187.53;7399144;19;20055;-83
2022/04/07 02:57:05;;;;;;;9.02;0.68;;;;;;;9.79;100.00;96186.78;7398868;19;20021;-86
2022/04/07 02:59:34;;;;;;;0.52;0.50;;;;;;;9.78;100.00;96182.53;7399986;19;20030;-81
2022/04/07 03:02:00;;;;;;;0.75;0.68;;;;;;;9.80;100.00;96188.28;7397351;19;20011;-83
2022/04/07 03:04:26;;;;;;;2.92;0.28;;;;;;;9.81;100.00;96178.66;7397431;19;20046;-83
2022/04/07 03:06:53;;;;;;;1.65;0.40;;;;;;;9.84;100.00;96189.38;7399276;19;20033;-82
2022/04/07 03:09:20;;;;;;;1.75;0.82;;;;;;;9.86;100.00;96174.94;7398539;19;20345;-83
2022/04/07 03:11:47;;;;;;;7.15;0.80;;;;;;;9.90;100.00;96175.28;7394799;19;20018;-83
2022/04/07 03:14:14;;;;;;;0.50;0.50;;;;;;;9.89;100.00;96157.13;7396913;19;20026;-82
2022/04/07 03:16:40;;;;;;;0.15;0.15;;;;;;;9.86;100.00;96174.94;7394369;19;20027;-82
2022/04/07 03:19:07;;;;;;;0.30;0.30;;;;;;;9.81;100.00;96150.88;7390996;19;20019;-82
2022/04/07 03:21:33;;;;;;;0.57;0.30;;;;;;;9.78;100.00;96157.53;7392870;19;20358;-83
2022/04/07 03:23:59;;;;;;;1.75;1.10;;;;;;;9.76;100.00;96143.47;7389613;19;20018;-82
2022/04/07 03:26:25;;;;;;;0.43;0.43;;;;;;;9.71;100.00;96149.97;7390059;19;20021;-82
2022/04/07 03:28:52;;;;;;;0.20;0.20;;;;;;;9.63;100.00;96152.03;7392225;19;20010;-83
2022/04/07 03:31:18;;;;;;;0.45;0.25;;;;;;;9.56;100.00;96142.41;7391798;19;20015;-82
2022/04/07 03:33:44;;;;;;;0.30;0.30;;;;;;;9.54;100.00;96149.81;7391543;19;20027;-82
2022/04/07 03:36:10;;;;;;;3.50;1.42;;;;;;;9.56;100.00;96147.22;7391141;19;20026;-81
2022/04/07 03:38:38;;;;;;;0.40;0.40;;;;;;;9.53;100.00;96145.56;7392722;19;20022;-82
2022/04/07 03:41:06;;;;;;;3.25;0.57;;;;;;;9.52;100.00;96130.19;7389363;19;20077;-81
2022/04/07 03:43:33;;;;;;;12.73;0.73;;;;;;;9.51;100.00;96135.00;7395807;19;20026;-81
2022/04/07 03:46:00;;;;;;;0.32;0.32;;;;;;;9.48;100.00;96135.38;7391516;19;20038;-81
2022/04/07 03:48:26;;;;;;;1.05;0.20;;;;;;;9.46;100.00;96132.44;7392394;19;20684;-82
2022/04/07 03:50:52;;;;;;;11.60;1.35;;;;;;;9.45;100.00;96130.94;7389362;19;20038;-81
2022/04/07 03:53:18;;;;;;;0.28;0.28;;;;;;;9.45;100.00;96108.72;7389134;19;20031;-81
2022/04/07 03:55:45;;;;;;;2.85;0.30;;;;;;;9.48;100.00;96135.38;7387321;19;20356;-81
2022/04/07 03:58:11;;;;;;;3.30;0.43;;;;;;;9.54;100.00;96138.69;7389382;19;20026;-83
2022/04/07 04:00:37;;;;;;;0.30;0.30;;;;;;;9.57;100.00;96124.44;7391339;19;20039;-81
2022/04/07 04:03:03;;;;;;;3.65;0.70;;;;;;;9.60;100.00;96130.91;7396245;19;20022;-81
2022/04/07 04:05:30;;;;;;;8.23;0.45;;;;;;;9.62;100.00;96134.59;7389369;19;20358;-82
2022/04/07 04:07:59;;;;;;;3.00;0.85;;;;;;;9.63;100.00;96124.25;7389933;19;20025;-83
2022/04/07 04:10:26;;;;;;;0.30;0.30;;;;;;;9.60;100.00;96114.97;7390530;19;20015;-81
2022/04/07 04:12:52;;;;;;;0.20;0.20;;;;;;;9.67;100.00;96119.03;7394157;19;20019;-81
2022/04/07 04:15:18;;;;;;;10.15;1.05;;;;;;;9.68;100.00;96117.75;7389633;19;20041;-80
2022/04/07 04:17:45;;;;;;;4.25;0.60;;;;;;;9.61;100.00;96112.94;7391684;19;20022;-80
2022/04/07 04:20:12;;;;;;;0.30;0.30;;;;;;;9.58;100.00;96111.28;7393276;19;20492;-80
2022/04/07 04:22:42;;;;;;;1.00;1.00;;;;;;;9.61;100.00;96104.63;7397214;19;20031;-80
2022/04/07 04:25:13;;;;;;;0.38;0.38;;;;;;;9.55;100.00;96113.13;7389677;19;20022;-81
2022/04/07 04:27:40;;;;;;;0.30;0.30;;;;;;;9.54;100.00;96100.56;7392624;19;20017;-79
2022/04/07 04:30:07;;;;;;;0.20;0.20;;;;;;;9.49;100.00;96097.97;7390325;19;20014;-81
2022/04/07 04:32:34;;;;;;;5.80;0.35;;;;;;;9.43;100.00;96100.97;7394815;19;20019;-80
2022/04/07 04:35:02;;;;;;;0.32;0.32;;;;;;;9.39;100.00;96083.94;7391587;19;20046;-82
2022/04/07 04:37:32;;;;;;;0.20;0.20;;;;;;;9.44;100.00;96080.19;7389389;19;20035;-82
2022/04/07 04:40:00;;;;;;;0.40;0.40;;;;;;;9.48;100.00;96088.19;7386552;19;20015;-83
2022/04/07 04:42:30;;;;;;;2.28;1.20;;;;;;;9.45;100.00;96086.50;7388669;19;20031;-81
2022/04/07 04:45:01;;;;;;;2.42;0.65;;;;;;;9.48;100.00;96085.41;7389272;19;20018;-96
2022/04/07 04:47:40;;;;;;;13.10;1.00;;;;;;;9.47;100.00;96087.44;7400218;19;20022;-96
2022/04/07 04:50:09;;;;;;;0.22;0.20;;;;;;;9.56;100.00;96075.00;7417878;19;20099;-96
2022/04/07 04:52:40;;;;;;;7.97;0.50;;;;;;;9.57;100.00;96079.25;7416776;19;20093;-96
2022/04/07 04:55:11;;;;;;;5.63;0.50;;;;;;;9.57;100.00;96082.75;7413471;19;20017;-96
2022/04/07 04:58:00;;;;;;;;;;;;;;;;;;;;;
2022/04/07 05:00:30;;;;;;;0.20;0.20;;;;;;;9.49;100.00;96092.41;7410858;19;20015;-95
2022/04/07 05:02:57;;;;;;;4.20;1.10;;;;;;;9.53;100.00;96101.13;7412243;19;20022;-96
2022/04/07 05:05:23;;;;;;;1.80;1.02;;;;;;;9.51;100.00;96107.22;7398537;19;20102;-95
2022/04/07 05:07:49;;;;;;;0.30;0.30;;;;;;;9.49;100.00;96109.06;7398243;19;20093;-95
2022/04/07 05:10:16;;;;;;;5.05;0.43;;;;;;;9.42;100.00;96107.06;7404833;19;20022;-96
2022/04/07 05:12:42;;;;;;;17.55;1.67;;;;;;;9.37;100.00;96102.44;7403435;19;20015;-94
2022/04/07 05:15:08;;;;;;;0.63;0.63;;;;;;;9.34;100.00;96109.09;7398211;19;20006;-82
2022/04/07 05:17:35;;;;;;;0.20;0.20;;;;;;;9.35;100.00;96105.03;7391312;19;20033;-84
2022/04/07 05:20:01;;;;;;;10.65;0.57;;;;;;;9.28;100.00;96101.00;7392427;19;20042;-86
2022/04/07 05:22:28;;;;;;;0.20;0.20;;;;;;;9.33;100.00;96113.19;7394256;19;20049;-81
2022/04/07 05:24:54;;;;;;;0.28;0.28;;;;;;;9.30;100.00;96108.75;7384423;19;20712;-82
2022/04/07 05:27:20;;;;;;;0.22;0.22;;;;;;;9.27;100.00;96118.22;7388248;19;20018;-84
2022/04/07 05:29:46;;;;;;;0.95;0.85;;;;;;;9.26;100.00;96122.28;7390209;19;20611;-83
2022/04/07 05:32:12;;;;;;;6.20;0.50;;;;;;;9.23;100.00;96109.50;7390376;19;20035;-79
2022/04/07 05:34:39;;;;;;;0.20;0.20;;;;;;;9.17;100.00;96123.56;7386232;19;20077;-80
2022/04/07 05:37:05;;;;;;;0.30;0.30;;;;;;;9.15;100.00;96121.38;7388042;19;20421;-79
2022/04/07 05:39:31;;;;;;;10.80;0.50;;;;;;;9.17;100.00;96134.69;7386712;19;20028;-80
2022/04/07 05:41:57;;;;;;;1.55;0.63;;;;;;;9.22;100.00;96130.25;7380811;19;20025;-79
2022/04/07 05:44:24;;;;;;;1.60;0.85;;;;;;;9.21;100.00;96123.94;7385291;19;20034;-84
2022/04/07 05:46:53;;;;;;;0.40;0.40;;;;;;;9.23;100.00;96137.25;7385917;19;20026;-78
2022/04/07 05:49:19;;;;;;;0.63;0.40;;;;;;;9.18;100.00;96146.53;7385686;19;20021;-78
2022/04/07 05:51:47;;;;;;;2.63;0.93;;;;;;;9.22;100.00;96141.34;7386563;19;20014;-79
2022/04/07 05:54:16;;;;;;;1.83;0.98;;;;;;;9.24;100.00;96139.50;7385617;19;20026;-79
2022/04/07 05:56:43;;;;;;;17.55;0.75;;;;;;;9.28;100.00;96139.09;7387271;19;20018;-79
2022/04/07 05:59:09;;;;;;;0.52;0.52;;;;;;;9.30;100.00;96137.25;7385095;19;20389;-79
2022/04/07 06:01:35;;;;;;;0.30;0.30;;;;;;;9.30;100.00;96133.75;7386357;19;20010;-79
2022/04/07 06:04:01;;;;;;;0.43;0.43;;;;;;;9.35;100.00;96135.59;7385163;19;20015;-79
2022/04/07 06:06:27;;;;;;;2.08;0.80;;;;;;;9.36;100.00;96129.47;7387262;19;20015;-80
2022/04/07 06:08:53;;;;;;;0.40;0.40;;;;;;;9.33;100.00;96140.97;7388120;19;20014;-81
2022/04/07 06:11:19;;;;;;;0.75;0.75;;;;;;;9.35;100.00;96144.66;7385824;19;20023;-80
2022/04/07 06:13:45;;;;;;;0.73;0.52;;;;;;;9.29;100.00;96149.66;7391225;19;20025;-81
2022/04/07 06:16:12;;;;;;;2.85;1.08;;;;;;;9.23;100.00;96153.91;7385206;19;20026;-80
2022/04/07 06:18:38;;;;;;;0.70;0.55;;;;;;;9.22;100.00;96149.66;7385344;19;20011;-80
2022/04/07 06:21:04;;;;;;;0.17;0.17;;;;;;;9.25;100.00;96151.34;7388361;19;20038;-81
2022/04/07 06:23:32;;;;;;;2.40;1.13;;;;;;;9.28;100.00;96144.66;7389204;19;20726;-80
2022/04/07 06:25:58;;;;;;;0.30;0.30;;;;;;;9.31;100.00;96160.22;7388351;19;20014;-79
2022/04/07 06:28:24;;;;;;;0.45;0.45;;;;;;;9.25;100.00;96163.16;7388838;19;20037;-81
2022/04/07 06:30:51;;;;;;;0.35;0.35;;;;;;;9.17;100.00;96159.66;7385862;19;20018;-79
2022/04/07 06:33:18;;;;;;;7.43;0.70;;;;;;;9.26;100.00;96161.13;7390430;19;20066;-80
2022/04/07 06:35:44;;;;;;;2.05;0.93;;;;;;;9.25;100.00;96165.22;7386388;19;20038;-78
2022/04/07 06:38:10;;;;;;;1.23;0.80;;;;;;;9.24;100.00;96174.84;7388314;19;20015;-80
2022/04/07 06:40:36;;;;;;;0.40;0.40;;;;;;;9.24;100.00;96166.50;7385951;19;20484;-78
2022/04/07 06:43:03;;;;;;;0.30;0.30;;;;;;;9.26;100.00;96169.47;7388899;19;20022;-78
2022/04/07 06:45:29;;;;;;;8.07;0.82;;;;;;;9.37;100.00;96180.19;7386054;19;20583;-79
2022/04/07 06:47:56;;;;;;;0.65;0.38;;;;;;;9.46;100.00;96187.97;7387462;19;20018;-79
2022/04/07 06:50:24;;;;;;;0.57;0.57;;;;;;;9.49;100.00;96181.28;7389652;19;20018;-80
2022/04/07 06:52:50;;;;;;;0.32;0.32;;;;;;;9.54;100.00;96199.81;7387747;19;20022;-80
2022/04/07 06:55:16;;;;;;;5.88;0.57;;;;;;;9.65;100.00;96185.53;7381312;19;20014;-78
2022/04/07 06:57:53;;;;;;;4.05;0.60;;;;;;;9.71;100.00;96202.75;7389651;19;20015;-79
2022/04/07 07:00:21;;;;;;;0.30;0.30;;;;;;;9.67;100.00;96219.06;7383822;19;20023;-82
2022/04/07 07:02:48;;;;;;;0.85;0.45;;;;;;;9.67;100.00;96214.25;7388444;19;20022;-83
2022/04/07 07:05:15;;;;;;;0.22;0.22;;;;;;;9.65;100.00;96210.53;7382211;19;20027;-83
2022/04/07 07:07:42;;;;;;;1.55;0.65;;;;;;;9.80;100.00;96211.25;7387131;19;20614;-82
2022/04/07 07:10:08;;;;;;;2.50;0.20;;;;;;;9.90;100.00;96216.97;7381933;19;20022;-84
2022/04/07 07:12:34;;;;;;;0.38;0.38;;;;;;;10.02;100.00;96240.31;7385485;19;20022;-83
2022/04/07 07:15:01;;;;;;;0.30;0.30;;;;;;;10.09;100.00;96230.47;7383879;19;20102;-83
2022/04/07 07:17:33;;;;;;;0.38;0.38;;;;;;;10.12;100.00;96241.22;7386620;19;20025;-83
2022/04/07 07:20:01;;;;;;;0.75;0.75;;;;;;;10.05;100.00;96247.50;7383988;19;20022;-83
2022/04/07 07:22:27;;;;;;;0.30;0.30;;;;;;;9.95;100.00;96254.94;7385243;19;20026;-83
2022/04/07 07:24:54;;;;;;;0.52;0.30;;;;;;;10.15;100.00;96267.91;7381611;19;20053;-83
2022/04/07 07:27:20;;;;;;;0.30;0.30;;;;;;;10.30;100.00;96256.75;7386841;19;20448;-82
2022/04/07 07:29:46;;;;;;;0.32;0.32;;;;;;;10.27;100.00;96269.00;7387349;19;20018;-85
2022/04/07 07:32:12;;;;;;;1.17;0.57;;;;;;;10.19;100.00;96251.59;7389558;19;20022;-82
2022/04/07 07:34:39;;;;;;;8.30;1.02;;;;;;;10.25;100.00;96266.03;7389038;19;20027;-84
2022/04/07 07:37:05;;;;;;;7.55;0.80;;;;;;;10.24;100.00;96272.91;7390859;19;20022;-80
2022/04/07 07:39:31;;;;;;;0.10;0.10;;;;;;;10.30;100.00;96273.44;7387669;19;20126;-80
2022/04/07 07:41:57;;;;;;;0.32;0.32;;;;;;;10.45;100.00;96281.72;7387187;19;20361;-81
2022/04/07 07:44:24;;;;;;;0.30;0.30;;;;;;;10.42;100.00;96274.50;7390723;19;20018;-81
2022/04/07 07:46:51;;;;;;;0.82;0.20;;;;;;;10.40;100.00;96293.78;7386802;19;20555;-80
2022/04/07 07:49:17;;;;;;;2.58;1.33;;;;;;;10.47;100.00;96298.59;7390508;19;20042;-80
2022/04/07 07:51:43;;;;;;;0.30;0.30;;;;;;;10.41;100.00;96295.28;7388991;19;20015;-81
2022/04/07 07:54:09;;;;;;;0.90;0.38;;;;;;;10.57;100.00;96307.84;7389867;19;20025;-81
2022/04/07 07:56:37;;;;;;;0.60;0.60;;;;;;;10.82;100.00;96304.41;7390686;19;20073;-80
2022/04/07 07:59:04;;;;;;;1.20;0.35;;;;;;;10.70;100.00;96318.00;7389421;19;20097;-81
2022/04/07 08:01:30;;;;;;;0.75;0.68;;;;;;;10.65;100.00;96302.97;7387668;19;20416;-80
2022/04/07 08:03:56;;;;;;;0.75;0.38;;;;;;;10.55;100.00;96309.69;7388282;19;20007;-82
2022/04/07 08:06:22;;;;;;;3.20;0.40;;;;;;;10.57;100.00;96318.97;7389305;19;20107;-81
2022/04/07 08:08:48;;;;;;;0.75;0.65;;;;;;;10.53;100.00;96324.16;7389363;19;20391;-80
2022/04/07 08:11:14;;;;;;;0.30;0.30;;;;;;;10.52;100.00;96324.75;7389816;19;20014;-80
2022/04/07 08:13:40;;;;;;;0.20;0.20;;;;;;;10.40;100.00;96334.78;7393332;19;20019;-81
2022/04/07 08:16:07;;;;;;;1.05;0.90;;;;;;;10.23;100.00;96367.97;7390104;19;20023;-82
2022/04/07 08:18:33;;;;;;;0.52;0.50;;;;;;;10.02;100.00;96381.31;7386730;19;20489;-84
2022/04/07 08:20:59;;;;;;;1.50;1.40;;;;;;;9.71;100.00;96402.78;7387022;19;20471;-83
2022/04/07 08:23:25;;;;;;;0.68;0.68;;;;;;;9.54;100.00;96422.00;7388832;19;20014;-82
2022/04/07 08:25:51;;;;;;;0.22;0.22;;;;;;;9.37;100.00;96408.63;7389980;19;20015;-83
2022/04/07 08:28:17;;;;;;;2.20;0.57;;;;;;;9.19;100.00;96404.13;7388663;19;20534;-83
2022/04/07 08:30:43;;;;;;;1.00;0.50;;;;;;;9.11;100.00;96406.13;7387271;19;20021;-83
2022/04/07 08:33:09;;;;;;;0.38;0.38;;;;;;;9.14;100.00;96422.44;7390230;19;20018;-83
2022/04/07 08:35:35;;;;;;;0.57;0.57;;;;;;;9.24;100.00;96424.69;7390008;19;20031;-83
2022/04/07 08:38:02;;;;;;;0.40;0.40;;;;;;;9.38;100.00;96420.47;7391180;19;20087;-83
2022/04/07 08:40:28;;;;;;;13.95;0.95;;;;;;;9.62;100.00;96425.53;7387829;19;20023;-84
2022/04/07 08:42:55;;;;;;;0.50;0.50;;;;;;;9.85;100.00;96415.22;7392041;19;20026;-84
2022/04/07 08:45:21;;;;;;;0.50;0.50;;;;;;;10.17;100.00;96437.69;7388402;19;20025;-83
2022/04/07 08:47:48;;;;;;;0.68;0.68;;;;;;;10.27;100.00;96444.19;7389952;19;20373;-82
2022/04/07 08:50:20;;;;;;;0.35;0.35;;;;;;;10.28;100.00;96442.91;7387724;19;20472;-84
2022/04/07 08:52:47;;;;;;;2.78;1.02;;;;;;;10.25;100.00;96449.56;7388271;19;20518;-82
2022/04/07 08:55:14;;;;;;;0.47;0.47;;;;;;;10.24;100.00;96448.09;7389028;19;20400;-80
2022/04/07 08:57:41;;;;;;;1.40;0.57;;;;;;;10.36;100.00;96438.06;7386395;19;20591;-81
2022/04/07 09:00:08;;;;;;;0.73;0.60;;;;;;;10.58;100.00;96442.13;7386895;19;20018;-81
2022/04/07 09:02:34;;;;;;;0.47;0.47;;;;;;;10.70;100.00;96453.63;7388340;19;20070;-81
2022/04/07 09:05:00;;;;;;;6.22;1.98;;;;;;;10.82;100.00;96446.34;7386528;19;20018;-82
2022/04/07 09:07:31;;;;;;;2.25;0.65;;;;;;;11.15;100.00;96447.94;7387804;19;20700;-81
2022/04/07 09:09:59;;;;;;;2.10;0.68;;;;;;;11.33;100.00;96439.16;7387213;19;20570;-82
2022/04/07 09:12:25;;;;;;;0.80;0.70;;;;;;;11.45;100.00;96439.47;7390246;19;20014;-81
2022/04/07 09:14:59;;;;;;;0.60;0.60;;;;;;;11.63;100.00;96446.63;7387534;19;20210;-83
2022/04/07 09:17:27;;;;;;;2.65;0.60;;;;;;;11.85;100.00;96462.50;7390612;19;20069;-82
2022/04/07 09:19:53;;;;;;;0.80;0.80;;;;;;;11.88;100.00;96466.97;7394316;19;20015;-83
2022/04/07 09:22:33;;;;;;;1.10;0.68;;;;;;;11.86;100.00;96474.41;7394514;19;20467;-84
2022/04/07 09:25:05;;;;;;;2.42;0.75;;;;;;;11.81;100.00;96478.16;7390717;19;20046;-84
2022/04/07 09:27:32;;;;;;;0.22;0.22;;;;;;;11.85;100.00;96459.72;7389320;19;20468;-84
2022/04/07 09:29:58;;;;;;;0.30;0.30;;;;;;;11.81;100.00;96484.47;7387350;19;20115;-83
2022/04/07 09:32:26;;;;;;;0.17;0.17;;;;;;;11.85;100.00;96482.03;7386813;19;20022;-83
2022/04/07 09:34:54;;;;;;;1.55;1.38;;;;;;;11.92;100.00;96472.88;7385383;19;20027;-84
2022/04/07 09:37:22;;;;;;;1.75;1.10;;;;;;;11.98;100.00;96509.66;7391519;19;20018;-83
2022/04/07 09:39:50;;;;;;;5.20;1.00;;;;;;;12.06;100.00;96499.19;7386993;19;20539;-83
2022/04/07 09:42:23;;;;;;;0.20;0.20;;;;;;;11.94;100.00;96514.88;7390067;19;20018;-84
2022/04/07 09:44:57;;;;;;;0.20;0.20;;;;;;;12.06;100.00;96509.63;7388035;19;20493;-83
2022/04/07 09:47:33;;;;;;;0.25;0.25;;;;;;;12.30;100.00;96511.69;7387347;19;20015;-84
2022/04/07 09:49:59;;;;;;;0.25;0.25;;;;;;;12.67;100.00;96526.66;7386436;19;20018;-84
2022/04/07 09:52:25;;;;;;;0.63;0.50;;;;;;;12.77;100.00;96553.41;7387913;19;20022;-83
2022/04/07 09:54:51;;;;;;;1.83;1.15;;;;;;;13.03;100.00;96554.88;7385990;19;20014;-84
2022/04/07 09:57:20;;;;;;;4.40;0.63;;;;;;;12.52;100.00;96557.47;7387068;19;20018;-84
2022/04/07 09:59:47;;;;;;;2.28;0.52;;;;;;;12.13;100.00;96536.72;7387794;19;20026;-83
2022/04/07 10:02:16;;;;;;;4.97;1.05;;;;;;;11.98;100.00;96543.13;7388109;19;20511;-85
2022/04/07 10:04:43;;;;;;;0.90;0.85;;;;;;;11.84;100.00;96552.31;7384371;19;20019;-83
2022/04/07 10:07:11;;;;;;;5.57;1.35;;;;;;;11.93;100.00;96546.84;7387697;19;20022;-83
2022/04/07 10:09:46;;;;;;;0.65;0.60;;;;;;;11.88;100.00;96567.34;7387486;19;20021;-83
2022/04/07 10:12:13;;;;;;;0.30;0.30;;;;;;;11.59;100.00;96599.53;7387133;19;20014;-84
2022/04/07 10:14:39;;;;;;;1.20;1.17;;;;;;;11.13;100.00;96623.22;7386776;19;20010;-84
2022/04/07 10:17:09;;;;;;;0.47;0.47;;;;;;;10.34;100.00;96635.34;7385439;19;20484;-83
2022/04/07 10:20:05;;;;;;;0.30;0.30;;;;;;;9.77;100.00;96611.75;7384862;19;20346;-82
2022/04/07 10:22:34;;;;;;;0.55;0.55;;;;;;;9.48;100.00;96605.50;7387366;19;20039;-83
2022/04/07 10:25:03;;;;;;;0.63;0.50;;;;;;;9.59;100.00;96607.97;7384979;19;20010;-81
2022/04/07 10:27:33;;;;;;;0.50;0.50;;;;;;;9.73;100.00;96605.81;7384630;19;20019;-82
2022/04/07 10:30:14;;;;;;;0.43;0.43;;;;;;;10.18;100.00;96619.91;7383900;19;20026;-80
2022/04/07 10:32:54;;;;;;;3.17;1.13;;;;;;;10.81;100.00;96600.72;7385010;19;20011;-82
2022/04/07 10:35:35;;;;;;;0.57;0.57;;;;;;;11.35;100.00;96589.00;7386432;19;20018;-81
2022/04/07 10:38:06;;;;;;;6.22;2.97;;;;;;;11.81;100.00;96593.19;7388439;19;20018;-81
2022/04/07 10:40:34;;;;;;;1.83;1.15;;;;;;;12.35;100.00;96613.22;7383495;19;20026;-82
2022/04/07 10:43:15;;;;;;;0.85;0.82;;;;;;;12.44;100.00;96610.56;7388805;19;20014;-83
2022/04/07 10:45:42;;;;;;;1.15;0.68;;;;;;;12.54;100.00;96624.66;7386248;19;20046;-83
2022/04/07 10:48:18;;;;;;;0.30;0.30;;;;;;;12.54;100.00;96624.66;7384828;19;20338;-84
2022/04/07 10:50:56;;;;;;;0.32;0.25;;;;;;;12.47;100.00;96636.63;7383961;19;20886;-82
2022/04/07 10:53:36;;;;;;;0.30;0.30;;;;;;;12.28;100.00;96642.66;7386396;19;20033;-83
2022/04/07 10:56:13;;;;;;;0.30;0.30;;;;;;;12.10;100.00;96650.19;7388723;19;20042;-82
2022/04/07 10:58:45;;;;;;;7.32;0.50;;;;;;;12.01;100.00;96628.44;7385589;19;20011;-81
2022/04/07 11:01:16;;;;;;;0.43;0.43;;;;;;;12.08;100.00;96636.03;7383253;19;20022;-81
2022/04/07 11:04:20;;;;;;;0.30;0.30;;;;;;;12.19;100.00;96646.78;7384128;19;20364;-82
2022/04/07 11:07:02;;;;;;;0.77;0.68;;;;;;;12.48;100.00;96638.09;7394437;19;20027;-80
2022/04/07 11:09:47;;;;;;;1.20;0.95;;;;;;;12.72;100.00;96645.75;7392468;19;20014;-81
2022/04/07 11:12:20;;;;;;;0.22;0.20;;;;;;;12.62;100.00;96647.69;7391825;19;20014;-80
2022/04/07 11:14:48;;;;;;;1.17;0.68;;;;;;;12.58;100.00;96648.06;7388910;19;20035;-82
2022/04/07 11:17:33;;;;;;;1.88;0.43;;;;;;;12.29;100.00;96665.72;7391795;19;20025;-81
2022/04/07 11:20:15;;;;;;;0.65;0.55;;;;;;;12.47;100.00;96670.09;7389950;19;20015;-82
2022/04/07 11:23:09;;;;;;;1.30;0.32;;;;;;;12.67;100.00;96666.25;7392594;19;20110;-82
2022/04/07 11:25:39;;;;;;;6.03;1.13;;;;;;;13.03;100.00;96668.66;7389573;19;20336;-81
2022/04/07 11:28:22;;;;;;;3.05;1.35;;;;;;;13.11;100.00;96672.16;7389304;19;20018;-82
2022/04/07 11:30:53;;;;;;;11.40;1.83;;;;;;;13.07;100.00;96680.94;7389932;19;20043;-81
2022/04/07 11:33:28;;;;;;;;;;;;;;;12.64;100.00;96689.75;7392525;19;20035;-80
2022/04/07 11:36:00;;;;;;;9.60;1.80;;;;;;;12.08;100.00;96722.50;7392398;19;20356;-82